createdAt,value
2018-12-11T00:00:44.457Z,99001.67
2018-12-11T00:03:13.930Z,99000.04
2018-12-11T00:05:41.553Z,98997.14
2018-12-11T00:08:10.720Z,99008.45
2018-12-11T00:10:38.274Z,99004.64
2018-12-11T00:13:05.880Z,99006.34
2018-12-11T01:13:21.983Z,99064.33
2018-12-11T01:44:31.947Z,99068.88
2018-12-11T01:46:59.488Z,99061.70
2018-12-11T01:49:27.134Z,99060.92
2018-12-11T01:51:54.702Z,99061.41
2018-12-11T01:54:22.309Z,99057.13
2018-12-11T02:28:42.214Z,99035.86
2018-12-11T02:45:30.802Z,99030.17
2018-12-11T02:50:50.625Z,99022.38
2018-12-11T02:59:02.628Z,99032.70
2018-12-11T03:01:30.168Z,99027.13
2018-12-11T03:06:30.490Z,99025.03
2018-12-11T03:08:58.048Z,99023.72
2018-12-11T03:11:25.557Z,99020.68
2018-12-11T03:13:54.131Z,99019.84
2018-12-11T03:16:21.781Z,99018.11
2018-12-11T03:59:29.074Z,99022.78
2018-12-11T04:01:58.438Z,99030.97
2018-12-11T04:22:55.369Z,99049.13
2018-12-11T04:25:22.862Z,99052.19
2018-12-11T04:27:50.362Z,99054.77
2018-12-11T04:30:17.899Z,99054.31
2018-12-11T04:32:58.401Z,99054.25
2018-12-11T04:35:25.902Z,99060.28
2018-12-11T04:38:13.766Z,99062.02
2018-12-11T04:41:14.340Z,99068.50
2018-12-11T04:43:53.326Z,99073.70
2018-12-11T04:52:25.630Z,99069.99
2018-12-11T04:55:13.878Z,99080.78
2018-12-11T04:57:41.386Z,99073.91
2018-12-11T05:00:21.374Z,99080.77
2018-12-11T05:02:59.723Z,99086.75
2018-12-11T05:05:40.195Z,99087.59
2018-12-11T05:31:11.787Z,99123.39
2018-12-11T06:00:42.994Z,99140.83
2018-12-11T06:03:23.349Z,99145.08
2018-12-11T06:05:50.886Z,99150.59
2018-12-11T06:08:19.883Z,99154.80
2018-12-11T06:10:48.047Z,99146.97
2018-12-11T06:13:15.674Z,99160.17
2018-12-11T06:15:57.788Z,99162.99
2018-12-11T06:18:25.539Z,99164.17
2018-12-11T06:20:59.407Z,99164.22
2018-12-11T06:23:30.303Z,99175.78
2018-12-11T06:26:03.252Z,99176.16
2018-12-11T06:28:31.743Z,99187.20
2018-12-11T06:31:01.781Z,99185.80
2018-12-11T06:33:29.787Z,99189.57
2018-12-11T06:35:58.466Z,99198.77
2018-12-11T06:38:27.611Z,99202.95
2018-12-11T06:41:00.824Z,99200.09
2018-12-11T06:43:28.721Z,99200.69
2018-12-11T06:45:56.736Z,99200.91
2018-12-11T06:48:24.517Z,99196.45
2018-12-11T06:50:52.121Z,99200.66
2018-12-11T06:53:21.477Z,99195.34
2018-12-11T06:55:51.499Z,99199.67
2018-12-11T06:58:19.685Z,99196.36
2018-12-11T07:00:47.444Z,99203.14
2018-12-11T07:03:17.599Z,99198.36
2018-12-11T07:05:47.584Z,99198.64
2018-12-11T07:08:17.599Z,99196.00
2018-12-11T07:10:45.250Z,99199.73
2018-12-11T07:13:12.965Z,99200.03
2018-12-11T07:15:40.911Z,99201.27
2018-12-11T07:18:12.406Z,99201.69
2018-12-11T07:20:39.963Z,99202.75
2018-12-11T07:23:07.554Z,99203.63
2018-12-11T07:25:35.117Z,99207.52
2018-12-11T07:28:02.630Z,99207.58
2018-12-11T07:30:30.157Z,99211.56
2018-12-11T07:32:58.165Z,99209.17
2018-12-11T07:35:25.704Z,99213.91
2018-12-11T07:37:53.289Z,99211.33
2018-12-11T07:40:20.916Z,99206.72
2018-12-11T07:42:48.558Z,99219.25
2018-12-11T07:45:16.221Z,99217.94
2018-12-11T07:47:43.750Z,99221.22
2018-12-11T07:50:11.358Z,99227.42
2018-12-11T07:52:39.761Z,99230.59
2018-12-11T07:55:07.325Z,99227.72
2018-12-11T07:57:34.930Z,99238.44
2018-12-11T08:00:02.889Z,99234.66
2018-12-11T08:02:30.543Z,99236.38
2018-12-11T08:04:58.088Z,99237.77
2018-12-11T08:07:25.607Z,99244.50
2018-12-11T08:09:53.175Z,99233.92
2018-12-11T08:12:20.718Z,99237.13
2018-12-11T08:14:48.279Z,99240.25
2018-12-11T08:17:15.809Z,99241.20
2018-12-11T08:19:44.510Z,99240.70
2018-12-11T08:22:12.148Z,99247.05
2018-12-11T08:24:43.269Z,99235.59
2018-12-11T08:27:11.650Z,99241.38
2018-12-11T08:29:39.854Z,99239.22
2018-12-11T08:32:08.301Z,99236.78
2018-12-11T08:34:37.352Z,99242.78
2018-12-11T08:37:05.228Z,99234.88
2018-12-11T08:39:34.489Z,99229.75
2018-12-11T08:42:02.938Z,99234.98
2018-12-11T08:44:30.718Z,99231.83
2018-12-11T08:46:58.485Z,99235.85
2018-12-11T08:49:27.601Z,99234.94
2018-12-11T08:51:55.293Z,99232.39
2018-12-11T08:54:24.019Z,99240.07
2018-12-11T08:56:52.548Z,99241.08
2018-12-11T08:59:22.480Z,99240.33
2018-12-11T09:01:50.451Z,99228.34
2018-12-11T09:04:18.625Z,99235.18
2018-12-11T09:06:46.312Z,99229.16
2018-12-11T09:09:13.857Z,99229.91
2018-12-11T09:11:41.669Z,99229.63
2018-12-11T09:14:09.195Z,99218.98
2018-12-11T09:16:47.043Z,99219.59
2018-12-11T09:19:14.791Z,99222.77
2018-12-11T09:21:42.625Z,99219.55
2018-12-11T09:24:23.438Z,99214.27
2018-12-11T09:26:51.069Z,99218.91
2018-12-11T09:29:20.677Z,99212.66
2018-12-11T09:31:50.930Z,99217.46
2018-12-11T09:34:21.324Z,99207.77
2018-12-11T09:36:48.924Z,99217.23
2018-12-11T09:39:16.590Z,99217.11
2018-12-11T09:41:44.269Z,99210.83
2018-12-11T09:44:15.734Z,99211.41
2018-12-11T09:46:44.636Z,99206.34
2018-12-11T09:49:15.130Z,99202.22
2018-12-11T09:51:43.567Z,99208.98
2018-12-11T09:54:11.140Z,99202.59
2018-12-11T09:56:38.737Z,99195.92
2018-12-11T09:59:07.138Z,99207.50
2018-12-11T10:01:34.716Z,99191.81
2018-12-11T10:04:02.280Z,99181.97
2018-12-11T10:06:38.280Z,99182.07
2018-12-11T10:09:06.731Z,99169.45
2018-12-11T10:11:34.218Z,99174.81
2018-12-11T10:14:01.726Z,99166.13
2018-12-11T10:16:29.270Z,99162.55
2018-12-11T10:18:58.057Z,99164.95
2018-12-11T10:21:25.603Z,99161.37
2018-12-11T10:23:53.162Z,99164.81
2018-12-11T10:26:20.716Z,99152.97
2018-12-11T10:28:48.229Z,99159.46
2018-12-11T10:31:16.762Z,99160.23
2018-12-11T10:33:44.313Z,99153.11
2018-12-11T10:36:12.955Z,99161.94
2018-12-11T10:38:41.467Z,99168.94
2018-12-11T10:41:09.178Z,99165.70
2018-12-11T10:43:36.882Z,99163.00
2018-12-11T10:46:05.027Z,99162.80
2018-12-11T10:48:32.572Z,99163.23
2018-12-11T10:51:01.434Z,99161.92
2018-12-11T10:53:29.005Z,99168.77
2018-12-11T10:55:56.597Z,99161.02
2018-12-11T10:58:24.174Z,99169.38
2018-12-11T11:00:57.389Z,99171.23
2018-12-11T11:03:24.985Z,99167.41
2018-12-11T11:05:52.574Z,99173.70
2018-12-11T11:08:20.222Z,99172.66
2018-12-11T11:10:47.759Z,99164.70
2018-12-11T11:13:15.315Z,99166.53
2018-12-11T11:15:42.840Z,99166.17
2018-12-11T11:18:10.492Z,99168.03
2018-12-11T11:20:38.098Z,99158.98
2018-12-11T11:23:05.794Z,99159.16
2018-12-11T11:25:33.352Z,99160.44
2018-12-11T11:28:01.159Z,99160.69
2018-12-11T11:30:28.817Z,99163.84
2018-12-11T11:32:56.392Z,99170.90
2018-12-11T11:35:23.967Z,99156.73
2018-12-11T11:37:52.394Z,99167.72
2018-12-11T11:40:19.972Z,99170.81
2018-12-11T11:42:47.498Z,99166.60
2018-12-11T11:45:15.201Z,99169.00
2018-12-11T11:47:42.788Z,99171.84
2018-12-11T11:50:12.364Z,99172.88
2018-12-11T11:52:40.151Z,99172.25
2018-12-11T11:55:07.748Z,99174.17
2018-12-11T11:57:35.357Z,99178.70
2018-12-11T12:00:06.509Z,99173.98
2018-12-11T12:02:34.266Z,99178.63
2018-12-11T12:05:01.822Z,99183.80
2018-12-11T12:07:29.827Z,99183.27
2018-12-11T12:09:57.655Z,99187.66
2018-12-11T12:12:25.312Z,99172.58
2018-12-11T12:14:52.882Z,99183.64
2018-12-11T12:17:21.341Z,99185.81
2018-12-11T12:19:50.063Z,99189.58
2018-12-11T12:22:18.390Z,99195.59
2018-12-11T12:24:46.160Z,99206.23
2018-12-11T12:27:13.744Z,99194.81
2018-12-11T12:29:41.347Z,99207.84
2018-12-11T12:32:08.902Z,99208.61
2018-12-11T12:34:36.655Z,99208.42
2018-12-11T12:37:04.264Z,99210.20
2018-12-11T12:39:33.325Z,99211.41
2018-12-11T12:42:01.638Z,99209.14
2018-12-11T12:44:29.356Z,99203.89
2018-12-11T12:46:56.984Z,99207.95
2018-12-11T12:49:24.571Z,99220.03
2018-12-11T12:51:53.715Z,99209.53
2018-12-11T12:54:21.498Z,99211.36
2018-12-11T12:56:49.019Z,99220.88
2018-12-11T12:59:16.568Z,99220.60
2018-12-11T13:01:44.076Z,99217.70
2018-12-11T13:04:11.623Z,99222.36
2018-12-11T13:06:40.156Z,99228.78
2018-12-11T13:09:07.860Z,99232.84
2018-12-11T13:11:35.426Z,99239.53
2018-12-11T13:14:02.947Z,99232.11
2018-12-11T13:16:31.601Z,99236.39
2018-12-11T13:18:59.353Z,99236.95
2018-12-11T13:21:26.910Z,99250.89
2018-12-11T13:23:54.409Z,99253.00
2018-12-11T13:26:21.903Z,99259.70
2018-12-11T13:28:49.510Z,99259.28
2018-12-11T13:31:17.858Z,99259.94
2018-12-11T13:33:45.413Z,99273.33
2018-12-11T13:36:12.944Z,99275.27
2018-12-11T13:38:40.595Z,99283.78
2018-12-11T13:41:08.100Z,99277.00
2018-12-11T13:43:36.288Z,99285.27
2018-12-11T13:46:03.909Z,99283.86
2018-12-11T13:48:33.556Z,99291.39
2018-12-11T13:51:02.085Z,99289.41
2018-12-11T13:53:30.201Z,99297.07
2018-12-11T13:55:57.765Z,99299.02
2018-12-11T13:58:25.338Z,99296.26
2018-12-11T14:00:52.849Z,99298.05
2018-12-11T14:03:20.405Z,99303.60
2018-12-11T14:05:47.972Z,99299.87
2018-12-11T14:08:15.531Z,99299.63
2018-12-11T14:10:43.979Z,99303.62
2018-12-11T14:13:12.194Z,99307.20
2018-12-11T14:15:39.706Z,99306.86
2018-12-11T14:18:20.237Z,99309.55
2018-12-11T14:21:00.763Z,99305.03
2018-12-11T14:23:41.226Z,99303.82
2018-12-11T14:26:21.680Z,99307.34
2018-12-11T14:29:03.126Z,99313.94
2018-12-11T14:31:43.798Z,99313.59
2018-12-11T14:34:24.123Z,99317.11
2018-12-11T14:37:04.603Z,99318.42
2018-12-11T14:39:32.168Z,99326.67
2018-12-11T14:41:59.671Z,99318.15
2018-12-11T14:44:28.147Z,99325.08
2018-12-11T14:46:55.683Z,99324.28
2018-12-11T14:49:25.802Z,99325.17
2018-12-11T14:51:53.318Z,99329.14
2018-12-11T14:54:20.880Z,99326.58
2018-12-11T14:56:48.449Z,99324.04
2018-12-11T14:59:15.968Z,99326.25
2018-12-11T15:01:43.676Z,99329.31
2018-12-11T15:04:11.197Z,99338.37
2018-12-11T15:06:38.767Z,99341.84
2018-12-11T15:09:12.914Z,99346.61
2018-12-11T15:11:40.497Z,99341.92
2018-12-11T15:14:08.504Z,99347.15
2018-12-11T15:16:36.263Z,99348.91
2018-12-11T15:19:04.512Z,99343.73
2018-12-11T15:21:32.046Z,99351.48
2018-12-11T15:24:00.210Z,99354.06
2018-12-11T15:26:27.754Z,99356.68
2018-12-11T15:28:55.274Z,99356.69
2018-12-11T15:31:22.840Z,99359.27
2018-12-11T15:33:52.187Z,99364.84
2018-12-11T15:36:19.824Z,99371.73
2018-12-11T15:38:47.575Z,99368.73
2018-12-11T15:41:15.781Z,99372.59
2018-12-11T15:43:45.233Z,99376.89
2018-12-11T15:46:12.790Z,99382.07
2018-12-11T15:48:40.421Z,99388.50
2018-12-11T15:51:08.068Z,99389.81
2018-12-11T15:53:36.374Z,99390.66
2018-12-11T15:56:03.946Z,99391.09
2018-12-11T15:58:31.509Z,99389.36
2018-12-11T16:00:59.046Z,99394.52
2018-12-11T16:03:26.602Z,99398.37
2018-12-11T16:05:54.135Z,99403.97
2018-12-11T16:08:21.718Z,99400.93
2018-12-11T16:10:49.374Z,99401.81
2018-12-11T16:13:20.750Z,99409.11
2018-12-11T16:15:49.093Z,99412.98
2018-12-11T16:18:18.061Z,99407.84
2018-12-11T16:20:47.455Z,99410.84
2018-12-11T16:23:15.839Z,99416.44
2018-12-11T16:25:43.614Z,99417.30
2018-12-11T16:28:11.213Z,99419.88
2018-12-11T16:30:38.737Z,99424.20
2018-12-11T16:33:06.305Z,99423.77
2018-12-11T16:35:33.823Z,99416.02
2018-12-11T16:38:01.371Z,99423.28
2018-12-11T16:40:28.934Z,99422.41
2018-12-11T16:42:57.114Z,99435.28
2018-12-11T16:45:24.673Z,99436.11
2018-12-11T16:47:52.293Z,99432.65
2018-12-11T16:50:19.874Z,99429.63
2018-12-11T16:52:47.453Z,99440.85
2018-12-11T16:55:15.109Z,99439.96
2018-12-11T16:57:42.678Z,99438.71
2018-12-11T17:00:10.355Z,99442.99
2018-12-11T17:02:37.940Z,99444.72
2018-12-11T17:05:05.472Z,99452.03
2018-12-11T17:07:33.734Z,99446.89
2018-12-11T17:10:01.316Z,99447.31
2018-12-11T17:12:29.150Z,99447.31
2018-12-11T17:14:58.710Z,99449.88
2018-12-11T17:17:26.595Z,99444.27
2018-12-11T17:19:54.115Z,99444.29
2018-12-11T17:22:21.649Z,99453.78
2018-12-11T17:24:49.161Z,99455.50
2018-12-11T17:27:16.682Z,99452.93
2018-12-11T17:29:44.206Z,99455.09
2018-12-11T17:32:11.774Z,99453.38
2018-12-11T17:34:40.124Z,99454.65
2018-12-11T17:37:22.677Z,99461.57
2018-12-11T17:40:03.180Z,99463.30
2018-12-11T17:42:30.761Z,99465.46
2018-12-11T17:44:58.290Z,99464.17
2018-12-11T17:47:25.822Z,99469.77
2018-12-11T17:50:09.676Z,99469.78
2018-12-11T17:52:50.691Z,99471.50
2018-12-11T17:55:39.414Z,99473.22
2018-12-11T18:18:13.081Z,99487.44
2018-12-11T18:20:43.980Z,99492.59
2018-12-11T18:23:17.765Z,99497.75
2018-12-11T18:25:45.365Z,99502.05
2018-12-11T18:28:12.881Z,99509.39
2018-12-11T18:30:42.485Z,99508.52
2018-12-11T18:33:10.144Z,99503.37
2018-12-11T18:35:41.233Z,99508.95
2018-12-11T18:38:27.256Z,99514.55
2018-12-11T18:41:01.321Z,99512.83
2018-12-11T18:43:29.766Z,99505.92
2018-12-11T18:45:57.787Z,99508.95
2018-12-11T18:48:27.494Z,99510.69
2018-12-11T18:50:56.085Z,99511.98
2018-12-11T18:53:23.755Z,99509.80
2018-12-11T18:55:51.408Z,99512.80
2018-12-11T19:18:21.281Z,99524.42
2018-12-11T19:20:51.236Z,99530.02
2018-12-11T19:23:23.808Z,99526.60
2018-12-11T19:46:19.554Z,99539.43
2018-12-11T19:49:01.230Z,99530.83
2018-12-11T19:54:56.356Z,99536.42
2018-12-11T20:00:29.930Z,99538.55
2018-12-11T20:46:56.455Z,99562.41
2018-12-11T20:52:55.814Z,99569.94
2018-12-11T20:58:49.008Z,99572.58
2018-12-11T21:13:10.403Z,99583.17
2018-12-11T21:15:53.783Z,99587.47
2018-12-11T21:18:37.023Z,99584.38
2018-12-11T21:26:05.544Z,99592.74
2018-12-11T21:28:34.192Z,99600.39
2018-12-11T21:31:01.767Z,99587.09
2018-12-11T21:33:29.549Z,99586.20
2018-12-11T21:36:00.418Z,99588.23
2018-12-11T21:38:28.138Z,99583.99
2018-12-11T21:40:55.755Z,99587.84
2018-12-11T21:43:36.247Z,99590.88
2018-12-11T21:46:04.989Z,99581.49
2018-12-11T21:48:32.788Z,99586.20
2018-12-11T22:11:14.189Z,99582.14
2018-12-11T22:13:41.812Z,99591.21
2018-12-11T22:16:09.400Z,99586.84
2018-12-11T22:18:36.915Z,99582.53
2018-12-11T22:21:04.490Z,99588.02
2018-12-11T22:23:32.119Z,99581.37
2018-12-11T22:25:59.827Z,99576.61
2018-12-11T22:28:27.451Z,99585.03
2018-12-11T22:30:58.187Z,99586.64
2018-12-11T22:33:47.876Z,99585.35
2018-12-11T22:36:27.836Z,99585.27
2018-12-11T22:38:55.391Z,99581.89
2018-12-11T22:41:22.898Z,99579.51
2018-12-11T22:44:03.203Z,99583.07
2018-12-11T22:46:43.653Z,99581.89
2018-12-11T22:49:22.556Z,99576.78
2018-12-11T22:52:02.601Z,99582.78
2018-12-11T22:54:43.240Z,99588.78
2018-12-11T22:57:23.401Z,99586.42
2018-12-11T23:00:02.941Z,99588.78
2018-12-11T23:02:49.886Z,99594.78
2018-12-11T23:05:38.102Z,99590.11
2018-12-11T23:08:18.162Z,99590.58
2018-12-11T23:10:54.203Z,99585.20
2018-12-11T23:13:22.581Z,99582.16
2018-12-11T23:15:51.031Z,99582.05
2018-12-11T23:18:18.849Z,99583.17
2018-12-11T23:20:46.340Z,99576.20
2018-12-11T23:23:15.769Z,99575.30
2018-12-11T23:25:43.327Z,99570.80
2018-12-11T23:28:11.084Z,99577.94
2018-12-11T23:30:39.782Z,99578.23
2018-12-11T23:36:22.971Z,99582.31
2018-12-11T23:39:04.428Z,99582.26
2018-12-11T23:41:31.947Z,99586.02
2018-12-11T23:43:59.497Z,99585.58
2018-12-11T23:46:39.617Z,99590.78
2018-12-11T23:52:12.293Z,99587.77
2018-12-11T23:54:39.809Z,99586.97
2018-12-11T23:57:20.264Z,99578.89
2018-12-11T23:59:47.770Z,99588.35
